STE16 LIMJ-LGAV
Flight info
| Callsign | STE16 |
|---|---|
| Flight time | N/A |
| Altitude | 19000 |
| Route | UNITA L50 ELB M729 PNZ M603 SOR M736 CRN M601 RUTOM/N0403F410 UN604 ARA UB34 NEMES |
| Aircraft | C25B/M-SDE2E3FGHRWXY/LB1 |
Departure
| Time | 2026-05-09 08:22 |
|---|---|
| Airport | Genoa Cristoforo Colombo Airport (LIMJ) |
Arrival
| Time | N/A |
|---|---|
| Airport | Athens Eleftherios Venizelos International Airport (LGAV) |
| Time | Latitude | Longitude | Altitude | Speed | Heading |
|---|---|---|---|---|---|
| 2026-05-09 07:41 | 44.41239 | 8.85221 | 15 ft | 0 kts | 195° |
| 2026-05-09 08:09 | 44.41244 | 8.85223 | 15 ft | 2 kts | 194° |
| 2026-05-09 08:09 | 44.41259 | 8.85229 | 15 ft | 2 kts | 195° |
| 2026-05-09 08:09 | 44.41275 | 8.85235 | 15 ft | 2 kts | 197° |
| 2026-05-09 08:09 | 44.41290 | 8.85244 | 15 ft | 2 kts | 218° |
| 2026-05-09 08:10 | 44.41293 | 8.85253 | 15 ft | 0 kts | 266° |
| 2026-05-09 08:10 | 44.41295 | 8.85242 | 15 ft | 0 kts | 288° |
| 2026-05-09 08:11 | 44.41301 | 8.85218 | 15 ft | 9 kts | 288° |
| 2026-05-09 08:11 | 44.41321 | 8.85125 | 15 ft | 11 kts | 284° |
| 2026-05-09 08:11 | 44.41341 | 8.85021 | 15 ft | 12 kts | 284° |
| 2026-05-09 08:11 | 44.41349 | 8.84968 | 15 ft | 0 kts | 274° |
| 2026-05-09 08:12 | 44.41330 | 8.84953 | 15 ft | 6 kts | 194° |
| 2026-05-09 08:12 | 44.41283 | 8.84937 | 15 ft | 8 kts | 194° |
| 2026-05-09 08:12 | 44.41265 | 8.84930 | 15 ft | 0 kts | 194° |
| 2026-05-09 08:13 | 44.41231 | 8.84916 | 15 ft | 6 kts | 206° |
| 2026-05-09 08:13 | 44.41214 | 8.84863 | 15 ft | 7 kts | 281° |
| 2026-05-09 08:13 | 44.41227 | 8.84793 | 15 ft | 8 kts | 285° |
| 2026-05-09 08:14 | 44.41244 | 8.84701 | 15 ft | 11 kts | 285° |
| 2026-05-09 08:14 | 44.41275 | 8.84545 | 15 ft | 22 kts | 285° |
| 2026-05-09 08:14 | 44.41319 | 8.84334 | 15 ft | 23 kts | 285° |
| 2026-05-09 08:14 | 44.41357 | 8.84125 | 15 ft | 16 kts | 285° |
| 2026-05-09 08:15 | 44.41369 | 8.84070 | 15 ft | 0 kts | 289° |
| 2026-05-09 08:18 | 44.41390 | 8.83971 | 15 ft | 17 kts | 286° |
| 2026-05-09 08:18 | 44.41431 | 8.83768 | 15 ft | 25 kts | 284° |
| 2026-05-09 08:18 | 44.41477 | 8.83531 | 15 ft | 25 kts | 285° |
| 2026-05-09 08:18 | 44.41521 | 8.83297 | 15 ft | 25 kts | 286° |
| 2026-05-09 08:19 | 44.41567 | 8.83067 | 15 ft | 25 kts | 285° |
| 2026-05-09 08:19 | 44.41612 | 8.82836 | 15 ft | 24 kts | 285° |
| 2026-05-09 08:19 | 44.41645 | 8.82675 | 15 ft | 15 kts | 285° |
| 2026-05-09 08:19 | 44.41663 | 8.82561 | 14 ft | 8 kts | 255° |
| 2026-05-09 08:20 | 44.41623 | 8.82505 | 14 ft | 5 kts | 195° |
| 2026-05-09 08:20 | 44.41588 | 8.82502 | 13 ft | 0 kts | 182° |
| 2026-05-09 08:21 | 44.41553 | 8.82495 | 12 ft | 7 kts | 188° |
| 2026-05-09 08:21 | 44.41520 | 8.82523 | 13 ft | 6 kts | 101° |
| 2026-05-09 08:21 | 44.41506 | 8.82596 | 14 ft | 23 kts | 105° |
| 2026-05-09 08:22 | 44.41378 | 8.83245 | 17 ft | 117 kts | 105° |
| 2026-05-09 08:22 | 44.41105 | 8.84588 | 473 ft | 161 kts | 105° |
| 2026-05-09 08:22 | 44.40778 | 8.86320 | 916 ft | 213 kts | 103° |
| 2026-05-09 08:22 | 44.40387 | 8.88443 | 1077 ft | 232 kts | 104° |
| 2026-05-09 08:23 | 44.39938 | 8.90604 | 1587 ft | 222 kts | 106° |
| 2026-05-09 08:23 | 44.39524 | 8.92560 | 2668 ft | 198 kts | 106° |
| 2026-05-09 08:23 | 44.39131 | 8.94350 | 3750 ft | 192 kts | 108° |
| 2026-05-09 08:23 | 44.38722 | 8.96130 | 4792 ft | 193 kts | 109° |
| 2026-05-09 08:24 | 44.38303 | 8.97926 | 5770 ft | 196 kts | 109° |
| 2026-05-09 08:24 | 44.37949 | 8.99780 | 6698 ft | 199 kts | 100° |
| 2026-05-09 08:24 | 44.37347 | 9.01519 | 7492 ft | 208 kts | 134° |
| 2026-05-09 08:24 | 44.35999 | 9.02461 | 7922 ft | 235 kts | 173° |
| 2026-05-09 08:25 | 44.34313 | 9.02271 | 8538 ft | 247 kts | 189° |
| 2026-05-09 08:25 | 44.32602 | 9.02081 | 9211 ft | 247 kts | 181° |
| 2026-05-09 08:25 | 44.30857 | 9.02108 | 9505 ft | 253 kts | 179° |
| 2026-05-09 08:25 | 44.29090 | 9.02165 | 9892 ft | 254 kts | 180° |
| 2026-05-09 08:26 | 44.27315 | 9.02180 | 10227 ft | 256 kts | 180° |
| 2026-05-09 08:26 | 44.25526 | 9.02199 | 10563 ft | 257 kts | 180° |
| 2026-05-09 08:26 | 44.23733 | 9.02207 | 10885 ft | 259 kts | 180° |
| 2026-05-09 08:26 | 44.21927 | 9.02233 | 11213 ft | 260 kts | 181° |
| 2026-05-09 08:27 | 44.20112 | 9.02243 | 11536 ft | 261 kts | 181° |
| 2026-05-09 08:27 | 44.18286 | 9.02269 | 11854 ft | 263 kts | 181° |
| 2026-05-09 08:27 | 44.16453 | 9.02280 | 12172 ft | 264 kts | 181° |
| 2026-05-09 08:27 | 44.14604 | 9.02304 | 12481 ft | 266 kts | 181° |
| 2026-05-09 08:28 | 44.12745 | 9.02318 | 12797 ft | 267 kts | 182° |
| 2026-05-09 08:28 | 44.10879 | 9.02338 | 13100 ft | 269 kts | 181° |
| 2026-05-09 08:28 | 44.09034 | 9.02355 | 13401 ft | 270 kts | 182° |
| 2026-05-09 08:28 | 44.07119 | 9.02374 | 13698 ft | 272 kts | 182° |
| 2026-05-09 08:29 | 44.05225 | 9.02394 | 13982 ft | 273 kts | 182° |
| 2026-05-09 08:29 | 44.03317 | 9.02409 | 14187 ft | 277 kts | 182° |
| 2026-05-09 08:29 | 44.01358 | 9.02429 | 14312 ft | 281 kts | 183° |
| 2026-05-09 08:29 | 43.99434 | 9.02451 | 14770 ft | 275 kts | 183° |
| 2026-05-09 08:30 | 43.97511 | 9.02468 | 14991 ft | 277 kts | 183° |
| 2026-05-09 08:30 | 43.95614 | 9.02708 | 15189 ft | 283 kts | 169° |
| 2026-05-09 08:30 | 43.93722 | 9.03670 | 15437 ft | 288 kts | 158° |
| 2026-05-09 08:30 | 43.92063 | 9.05262 | 15659 ft | 293 kts | 142° |
| 2026-05-09 08:31 | 43.90493 | 9.07086 | 15882 ft | 294 kts | 144° |
| 2026-05-09 08:31 | 43.88908 | 9.08892 | 16109 ft | 296 kts | 143° |
| 2026-05-09 08:31 | 43.87345 | 9.10716 | 16344 ft | 298 kts | 143° |
| 2026-05-09 08:31 | 43.85728 | 9.12582 | 16561 ft | 299 kts | 143° |
| 2026-05-09 08:32 | 43.84128 | 9.14434 | 16789 ft | 301 kts | 144° |
| 2026-05-09 08:32 | 43.82512 | 9.16289 | 17008 ft | 302 kts | 144° |
| 2026-05-09 08:32 | 43.79266 | 9.20033 | 17438 ft | 305 kts | 144° |
| 2026-05-09 08:33 | 43.77634 | 9.21918 | 17649 ft | 306 kts | 144° |
| 2026-05-09 08:33 | 43.76011 | 9.23779 | 17857 ft | 308 kts | 144° |
| 2026-05-09 08:33 | 43.74366 | 9.25677 | 18057 ft | 309 kts | 144° |
| 2026-05-09 08:33 | 43.72707 | 9.27580 | 18268 ft | 310 kts | 144° |
| 2026-05-09 08:34 | 43.71045 | 9.29492 | 18458 ft | 312 kts | 144° |
| 2026-05-09 08:34 | 43.69373 | 9.31406 | 18626 ft | 313 kts | 144° |
| 2026-05-09 08:34 | 43.67695 | 9.33333 | 18805 ft | 314 kts | 144° |
| 2026-05-09 08:34 | 43.66014 | 9.35258 | 18975 ft | 315 kts | 145° |
| 2026-05-09 08:35 | 43.64320 | 9.37198 | 19083 ft | 319 kts | 144° |
| 2026-05-09 08:35 | 43.62594 | 9.39167 | 19086 ft | 325 kts | 145° |
| 2026-05-09 08:35 | 43.60836 | 9.41178 | 19092 ft | 331 kts | 144° |
| 2026-05-09 08:35 | 43.59050 | 9.43221 | 19096 ft | 335 kts | 144° |
| 2026-05-09 08:36 | 43.57239 | 9.45284 | 19098 ft | 339 kts | 144° |
| 2026-05-09 08:36 | 43.55412 | 9.47374 | 19099 ft | 342 kts | 144° |
| 2026-05-09 08:36 | 43.53567 | 9.49468 | 19096 ft | 345 kts | 144° |
| 2026-05-09 08:36 | 43.51714 | 9.51587 | 19099 ft | 347 kts | 144° |
| 2026-05-09 08:37 | 43.49847 | 9.53704 | 19098 ft | 349 kts | 144° |
| 2026-05-09 08:37 | 43.47972 | 9.55837 | 19097 ft | 350 kts | 144° |
| 2026-05-09 08:37 | 43.46091 | 9.57976 | 19102 ft | 351 kts | 144° |
| 2026-05-09 08:37 | 43.44199 | 9.60116 | 19099 ft | 352 kts | 144° |
| 2026-05-09 08:38 | 43.42306 | 9.62271 | 19100 ft | 353 kts | 144° |
| 2026-05-09 08:38 | 43.40404 | 9.64416 | 19101 ft | 354 kts | 144° |
| 2026-05-09 08:38 | 43.38508 | 9.66570 | 19099 ft | 354 kts | 144° |
| 2026-05-09 08:38 | 43.36600 | 9.68721 | 19099 ft | 354 kts | 145° |
| 2026-05-09 08:39 | 43.34695 | 9.70876 | 19102 ft | 355 kts | 144° |
| 2026-05-09 08:39 | 43.32780 | 9.73040 | 19103 ft | 355 kts | 145° |
| 2026-05-09 08:39 | 43.30871 | 9.75188 | 19104 ft | 355 kts | 144° |
| 2026-05-09 08:39 | 43.28998 | 9.77313 | 19594 ft | 337 kts | 145° |
| 2026-05-09 08:40 | 43.27246 | 9.79286 | 20228 ft | 321 kts | 146° |
| 2026-05-09 08:40 | 43.25508 | 9.81232 | 20321 ft | 324 kts | 146° |
| 2026-05-09 08:40 | 43.23758 | 9.83188 | 20488 ft | 325 kts | 146° |
| 2026-05-09 08:40 | 43.22007 | 9.85162 | 20649 ft | 326 kts | 146° |
| 2026-05-09 08:41 | 43.20247 | 9.87130 | 20812 ft | 327 kts | 146° |
| 2026-05-09 08:41 | 43.18488 | 9.89104 | 20974 ft | 328 kts | 146° |
| 2026-05-09 08:41 | 43.16719 | 9.91081 | 21125 ft | 329 kts | 146° |
| 2026-05-09 08:41 | 43.14950 | 9.93072 | 21279 ft | 330 kts | 146° |
| 2026-05-09 08:42 | 43.13244 | 9.94980 | 21429 ft | 330 kts | 146° |
| 2026-05-09 08:42 | 43.11459 | 9.96980 | 21581 ft | 332 kts | 146° |
| 2026-05-09 08:42 | 43.09671 | 9.98974 | 21732 ft | 332 kts | 146° |
| 2026-05-09 08:42 | 43.07879 | 10.00981 | 21879 ft | 334 kts | 146° |
| 2026-05-09 08:43 | 43.06078 | 10.02990 | 22033 ft | 334 kts | 146° |
| 2026-05-09 08:43 | 43.04272 | 10.05005 | 22171 ft | 335 kts | 146° |
| 2026-05-09 08:43 | 43.02461 | 10.07025 | 22321 ft | 336 kts | 146° |
| 2026-05-09 08:43 | 43.00647 | 10.09043 | 22463 ft | 337 kts | 146° |
| 2026-05-09 08:44 | 42.98826 | 10.11073 | 22610 ft | 338 kts | 147° |
| 2026-05-09 08:44 | 42.97001 | 10.13099 | 22753 ft | 339 kts | 146° |
| 2026-05-09 08:44 | 42.95172 | 10.15135 | 22894 ft | 339 kts | 147° |
| 2026-05-09 08:44 | 42.93338 | 10.17168 | 23036 ft | 340 kts | 147° |
| 2026-05-09 08:45 | 42.91500 | 10.19210 | 23172 ft | 341 kts | 147° |
| 2026-05-09 08:45 | 42.89679 | 10.21227 | 23293 ft | 342 kts | 147° |
| 2026-05-09 08:45 | 42.87822 | 10.23286 | 23435 ft | 343 kts | 147° |
| 2026-05-09 08:45 | 42.85963 | 10.25340 | 23569 ft | 344 kts | 147° |
| 2026-05-09 08:46 | 42.84107 | 10.27398 | 23692 ft | 345 kts | 147° |
| 2026-05-09 08:46 | 42.82243 | 10.29453 | 23801 ft | 345 kts | 147° |
| 2026-05-09 08:46 | 42.80373 | 10.31521 | 23918 ft | 346 kts | 147° |
| 2026-05-09 08:46 | 42.78498 | 10.33587 | 24029 ft | 347 kts | 147° |
| 2026-05-09 08:47 | 42.76620 | 10.35661 | 24092 ft | 349 kts | 147° |
| 2026-05-09 08:47 | 42.74718 | 10.37750 | 24093 ft | 353 kts | 147° |
| 2026-05-09 08:47 | 42.72824 | 10.39908 | 24091 ft | 359 kts | 142° |
| 2026-05-09 08:47 | 42.71140 | 10.42476 | 24095 ft | 364 kts | 136° |
| 2026-05-09 08:48 | 42.69411 | 10.44994 | 24095 ft | 365 kts | 139° |
| 2026-05-09 08:48 | 42.67645 | 10.47499 | 24098 ft | 368 kts | 138° |
| 2026-05-09 08:48 | 42.65906 | 10.50062 | 24105 ft | 370 kts | 137° |
| 2026-05-09 08:48 | 42.64158 | 10.52651 | 24110 ft | 372 kts | 137° |
| 2026-05-09 08:49 | 42.62396 | 10.55232 | 24107 ft | 373 kts | 138° |
| 2026-05-09 08:49 | 42.60621 | 10.57808 | 24111 ft | 374 kts | 138° |
| 2026-05-09 08:49 | 42.58847 | 10.60407 | 24111 ft | 375 kts | 137° |
| 2026-05-09 08:49 | 42.57088 | 10.62969 | 24110 ft | 376 kts | 138° |
| 2026-05-09 08:50 | 42.55308 | 10.65573 | 24109 ft | 377 kts | 137° |
| 2026-05-09 08:50 | 42.53518 | 10.68173 | 24112 ft | 377 kts | 138° |
| 2026-05-09 08:50 | 42.51730 | 10.70778 | 24110 ft | 378 kts | 137° |
| 2026-05-09 08:50 | 42.49934 | 10.73389 | 24109 ft | 378 kts | 138° |
| 2026-05-09 08:51 | 42.48139 | 10.75996 | 24111 ft | 379 kts | 137° |
| 2026-05-09 08:51 | 42.46338 | 10.78612 | 24110 ft | 379 kts | 138° |
| 2026-05-09 08:51 | 42.44534 | 10.81223 | 24110 ft | 380 kts | 137° |
| 2026-05-09 08:51 | 42.42738 | 10.83833 | 24111 ft | 380 kts | 138° |
| 2026-05-09 08:52 | 42.40927 | 10.86445 | 24112 ft | 380 kts | 137° |
| 2026-05-09 08:52 | 42.39119 | 10.89069 | 24110 ft | 380 kts | 138° |
| 2026-05-09 08:52 | 42.37307 | 10.91680 | 24106 ft | 381 kts | 138° |
| 2026-05-09 08:52 | 42.36111 | 10.93408 | 24107 ft | 381 kts | 138° |
| 2026-05-09 08:53 | 42.34299 | 10.96026 | 24104 ft | 381 kts | 138° |
| 2026-05-09 08:53 | 42.32488 | 10.98641 | 24106 ft | 381 kts | 138° |
| 2026-05-09 08:53 | 42.30680 | 11.01255 | 24106 ft | 381 kts | 138° |
| 2026-05-09 08:53 | 42.28866 | 11.03858 | 24105 ft | 381 kts | 138° |
| 2026-05-09 08:54 | 42.27053 | 11.06475 | 24101 ft | 381 kts | 137° |
| 2026-05-09 08:54 | 42.25237 | 11.09083 | 24101 ft | 381 kts | 138° |
| 2026-05-09 08:54 | 42.23418 | 11.11699 | 24099 ft | 381 kts | 138° |
| 2026-05-09 08:54 | 42.21603 | 11.14303 | 24099 ft | 381 kts | 138° |
| 2026-05-09 08:55 | 42.19785 | 11.16911 | 24096 ft | 381 kts | 138° |
| 2026-05-09 08:55 | 42.17968 | 11.19516 | 24098 ft | 381 kts | 138° |
| 2026-05-09 08:55 | 42.16145 | 11.22122 | 24099 ft | 381 kts | 138° |
| 2026-05-09 08:55 | 42.14351 | 11.24696 | 24097 ft | 381 kts | 138° |
| 2026-05-09 08:56 | 42.12526 | 11.27295 | 24098 ft | 381 kts | 138° |
| 2026-05-09 08:56 | 42.10705 | 11.29902 | 24096 ft | 382 kts | 138° |
| 2026-05-09 08:56 | 42.08882 | 11.32497 | 24093 ft | 382 kts | 138° |
| 2026-05-09 08:56 | 42.07061 | 11.35097 | 24093 ft | 382 kts | 138° |
| 2026-05-09 08:57 | 42.05234 | 11.37695 | 24092 ft | 382 kts | 138° |
| 2026-05-09 08:57 | 42.03410 | 11.40292 | 24092 ft | 382 kts | 138° |
| 2026-05-09 08:57 | 42.01586 | 11.42887 | 24093 ft | 382 kts | 138° |
| 2026-05-09 08:57 | 41.99755 | 11.45479 | 24092 ft | 382 kts | 138° |
| 2026-05-09 08:58 | 41.97929 | 11.48076 | 24091 ft | 382 kts | 138° |
| 2026-05-09 08:58 | 41.96094 | 11.50670 | 24096 ft | 382 kts | 138° |
| 2026-05-09 08:58 | 41.94265 | 11.53267 | 24091 ft | 382 kts | 138° |
| 2026-05-09 08:58 | 41.92432 | 11.55852 | 24093 ft | 382 kts | 138° |